sensor_id;sensor_type;location;lat;lon;timestamp;temperature;humidity
7684;DHT22;3884;48.616;12.872;2023-03-11T00:01:21;2.90;99.90
7684;DHT22;3884;48.616;12.872;2023-03-11T00:03:48;2.90;99.90
7684;DHT22;3884;48.616;12.872;2023-03-11T00:06:15;2.90;99.90
7684;DHT22;3884;48.616;12.872;2023-03-11T00:08:43;2.90;99.90
7684;DHT22;3884;48.616;12.872;2023-03-11T00:11:10;2.90;99.90
7684;DHT22;3884;48.616;12.872;2023-03-11T00:13:37;2.90;99.90
7684;DHT22;3884;48.616;12.872;2023-03-11T00:16:05;2.90;99.90
7684;DHT22;3884;48.616;12.872;2023-03-11T00:18:32;2.90;99.90
7684;DHT22;3884;48.616;12.872;2023-03-11T00:20:59;3.00;99.90
7684;DHT22;3884;48.616;12.872;2023-03-11T00:23:27;3.00;99.90
7684;DHT22;3884;48.616;12.872;2023-03-11T00:25:56;3.00;99.90
7684;DHT22;3884;48.616;12.872;2023-03-11T00:28:24;3.00;99.90
7684;DHT22;3884;48.616;12.872;2023-03-11T00:30:52;3.00;99.90
7684;DHT22;3884;48.616;12.872;2023-03-11T00:33:19;3.00;99.90
7684;DHT22;3884;48.616;12.872;2023-03-11T00:35:45;3.00;99.90
7684;DHT22;3884;48.616;12.872;2023-03-11T00:38:14;2.90;99.90
7684;DHT22;3884;48.616;12.872;2023-03-11T00:40:41;2.90;99.90
7684;DHT22;3884;48.616;12.872;2023-03-11T00:43:10;2.90;43.50
7684;DHT22;3884;48.616;12.872;2023-03-11T00:45:37;2.90;92.90
7684;DHT22;3884;48.616;12.872;2023-03-11T00:48:05;2.90;88.30
7684;DHT22;3884;48.616;12.872;2023-03-11T00:50:34;2.90;58.60
7684;DHT22;3884;48.616;12.872;2023-03-11T00:53:02;3.00;68.40
7684;DHT22;3884;48.616;12.872;2023-03-11T00:55:31;2.90;22.40
7684;DHT22;3884;48.616;12.872;2023-03-11T00:58:02;3.00;1.00
7684;DHT22;3884;48.616;12.872;2023-03-11T01:00:50;3.00;1.00
7684;DHT22;3884;48.616;12.872;2023-03-11T01:03:17;2.90;1.00
7684;DHT22;3884;48.616;12.872;2023-03-11T01:05:44;2.90;1.00
7684;DHT22;3884;48.616;12.872;2023-03-11T01:08:11;2.80;1.00
7684;DHT22;3884;48.616;12.872;2023-03-11T01:10:38;2.80;1.00
7684;DHT22;3884;48.616;12.872;2023-03-11T01:13:05;2.70;1.00
7684;DHT22;3884;48.616;12.872;2023-03-11T01:15:34;2.70;1.00
7684;DHT22;3884;48.616;12.872;2023-03-11T01:18:04;2.70;1.00
7684;DHT22;3884;48.616;12.872;2023-03-11T01:20:32;2.80;1.00
7684;DHT22;3884;48.616;12.872;2023-03-11T01:22:59;2.80;1.00
7684;DHT22;3884;48.616;12.872;2023-03-11T01:25:27;2.80;1.00
7684;DHT22;3884;48.616;12.872;2023-03-11T01:27:56;2.80;1.00
7684;DHT22;3884;48.616;12.872;2023-03-11T01:30:24;2.80;1.00
7684;DHT22;3884;48.616;12.872;2023-03-11T01:32:52;2.90;1.00
7684;DHT22;3884;48.616;12.872;2023-03-11T01:35:22;2.90;1.00
7684;DHT22;3884;48.616;12.872;2023-03-11T01:37:50;2.80;1.00
7684;DHT22;3884;48.616;12.872;2023-03-11T01:40:20;2.80;1.00
7684;DHT22;3884;48.616;12.872;2023-03-11T01:42:49;2.70;1.00
7684;DHT22;3884;48.616;12.872;2023-03-11T01:45:38;2.70;1.00
7684;DHT22;3884;48.616;12.872;2023-03-11T01:48:08;2.70;1.00
7684;DHT22;3884;48.616;12.872;2023-03-11T01:50:40;2.70;1.00
7684;DHT22;3884;48.616;12.872;2023-03-11T01:53:07;2.70;1.00
7684;DHT22;3884;48.616;12.872;2023-03-11T01:55:35;2.70;1.00
7684;DHT22;3884;48.616;12.872;2023-03-11T01:58:06;2.80;1.00
7684;DHT22;3884;48.616;12.872;2023-03-11T02:00:35;2.80;1.00
7684;DHT22;3884;48.616;12.872;2023-03-11T02:03:07;2.90;1.00
7684;DHT22;3884;48.616;12.872;2023-03-11T02:05:37;2.90;1.00
7684;DHT22;3884;48.616;12.872;2023-03-11T02:08:05;3.00;1.00
7684;DHT22;3884;48.616;12.872;2023-03-11T02:10:33;3.00;1.00
7684;DHT22;3884;48.616;12.872;2023-03-11T02:13:01;2.90;1.00
7684;DHT22;3884;48.616;12.872;2023-03-11T02:15:29;2.90;1.00
7684;DHT22;3884;48.616;12.872;2023-03-11T02:17:57;2.70;1.00
7684;DHT22;3884;48.616;12.872;2023-03-11T02:20:37;2.70;1.00
7684;DHT22;3884;48.616;12.872;2023-03-11T02:23:11;2.60;1.00
7684;DHT22;3884;48.616;12.872;2023-03-11T02:25:43;2.60;1.00
7684;DHT22;3884;48.616;12.872;2023-03-11T02:28:15;2.60;1.00
7684;DHT22;3884;48.616;12.872;2023-03-11T02:30:43;2.60;1.00
7684;DHT22;3884;48.616;12.872;2023-03-11T02:33:12;2.60;1.00
7684;DHT22;3884;48.616;12.872;2023-03-11T02:35:40;2.60;1.00
7684;DHT22;3884;48.616;12.872;2023-03-11T02:38:07;2.60;1.00
7684;DHT22;3884;48.616;12.872;2023-03-11T02:40:48;2.60;1.00
7684;DHT22;3884;48.616;12.872;2023-03-11T02:43:22;2.60;1.00
7684;DHT22;3884;48.616;12.872;2023-03-11T02:45:50;2.50;1.00
7684;DHT22;3884;48.616;12.872;2023-03-11T02:48:19;2.50;1.00
7684;DHT22;3884;48.616;12.872;2023-03-11T02:50:47;2.50;1.00
7684;DHT22;3884;48.616;12.872;2023-03-11T02:53:16;2.40;1.00
7684;DHT22;3884;48.616;12.872;2023-03-11T02:55:43;2.40;1.00
7684;DHT22;3884;48.616;12.872;2023-03-11T02:58:10;2.40;1.00
7684;DHT22;3884;48.616;12.872;2023-03-11T03:00:38;2.40;1.00
7684;DHT22;3884;48.616;12.872;2023-03-11T03:03:06;2.40;99.90
7684;DHT22;3884;48.616;12.872;2023-03-11T03:05:35;2.40;1.00
7684;DHT22;3884;48.616;12.872;2023-03-11T03:08:02;2.30;1.00
7684;DHT22;3884;48.616;12.872;2023-03-11T03:10:29;2.30;1.00
7684;DHT22;3884;48.616;12.872;2023-03-11T03:12:57;2.30;1.00
7684;DHT22;3884;48.616;12.872;2023-03-11T03:15:24;2.30;1.00
7684;DHT22;3884;48.616;12.872;2023-03-11T03:17:53;2.30;1.00
7684;DHT22;3884;48.616;12.872;2023-03-11T03:20:20;2.30;1.00
7684;DHT22;3884;48.616;12.872;2023-03-11T03:22:51;2.20;99.90
7684;DHT22;3884;48.616;12.872;2023-03-11T03:25:21;2.00;1.00
7684;DHT22;3884;48.616;12.872;2023-03-11T03:27:48;2.00;1.00
7684;DHT22;3884;48.616;12.872;2023-03-11T03:30:16;1.70;86.30
7684;DHT22;3884;48.616;12.872;2023-03-11T03:32:43;1.30;99.90
7684;DHT22;3884;48.616;12.872;2023-03-11T03:35:15;1.10;1.00
7684;DHT22;3884;48.616;12.872;2023-03-11T03:38:02;1.20;99.90
7684;DHT22;3884;48.616;12.872;2023-03-11T03:40:30;1.20;1.00
7684;DHT22;3884;48.616;12.872;2023-03-11T03:43:00;1.30;1.00
7684;DHT22;3884;48.616;12.872;2023-03-11T03:45:29;1.30;1.00
7684;DHT22;3884;48.616;12.872;2023-03-11T03:47:56;1.30;1.00
7684;DHT22;3884;48.616;12.872;2023-03-11T03:50:27;1.40;1.00
7684;DHT22;3884;48.616;12.872;2023-03-11T03:52:55;1.40;1.00
7684;DHT22;3884;48.616;12.872;2023-03-11T03:55:23;1.40;1.00
7684;DHT22;3884;48.616;12.872;2023-03-11T03:57:50;1.40;1.00
7684;DHT22;3884;48.616;12.872;2023-03-11T04:00:19;1.50;99.90
7684;DHT22;3884;48.616;12.872;2023-03-11T04:02:53;1.50;99.90
7684;DHT22;3884;48.616;12.872;2023-03-11T04:05:29;1.60;99.90
7684;DHT22;3884;48.616;12.872;2023-03-11T04:07:56;1.60;99.90
7684;DHT22;3884;48.616;12.872;2023-03-11T04:10:22;1.60;99.90
7684;DHT22;3884;48.616;12.872;2023-03-11T04:12:50;1.60;99.90
7684;DHT22;3884;48.616;12.872;2023-03-11T04:15:17;1.70;99.90
7684;DHT22;3884;48.616;12.872;2023-03-11T04:17:44;1.70;99.90
7684;DHT22;3884;48.616;12.872;2023-03-11T04:20:12;1.50;99.90
7684;DHT22;3884;48.616;12.872;2023-03-11T04:22:43;1.50;1.00
7684;DHT22;3884;48.616;12.872;2023-03-11T04:25:10;1.50;1.00
7684;DHT22;3884;48.616;12.872;2023-03-11T04:27:37;1.40;1.00
7684;DHT22;3884;48.616;12.872;2023-03-11T04:30:09;1.30;99.90
7684;DHT22;3884;48.616;12.872;2023-03-11T04:32:36;1.30;1.00
7684;DHT22;3884;48.616;12.872;2023-03-11T04:35:05;1.20;99.90
7684;DHT22;3884;48.616;12.872;2023-03-11T04:37:32;1.10;99.90
7684;DHT22;3884;48.616;12.872;2023-03-11T04:40:01;0.90;1.00
7684;DHT22;3884;48.616;12.872;2023-03-11T04:42:30;0.70;99.90
7684;DHT22;3884;48.616;12.872;2023-03-11T04:44:57;0.40;1.00
7684;DHT22;3884;48.616;12.872;2023-03-11T04:47:26;0.30;99.90
7684;DHT22;3884;48.616;12.872;2023-03-11T04:49:53;0.30;1.00
7684;DHT22;3884;48.616;12.872;2023-03-11T04:52:21;0.30;1.00
7684;DHT22;3884;48.616;12.872;2023-03-11T04:54:48;0.40;99.90
7684;DHT22;3884;48.616;12.872;2023-03-11T04:57:17;0.50;99.90
7684;DHT22;3884;48.616;12.872;2023-03-11T04:59:44;0.50;1.00
7684;DHT22;3884;48.616;12.872;2023-03-11T05:02:13;0.50;1.00
7684;DHT22;3884;48.616;12.872;2023-03-11T05:04:47;0.50;99.90
7684;DHT22;3884;48.616;12.872;2023-03-11T05:07:15;0.50;99.90
7684;DHT22;3884;48.616;12.872;2023-03-11T05:09:42;0.50;99.80
7684;DHT22;3884;48.616;12.872;2023-03-11T05:12:10;0.50;22.10
7684;DHT22;3884;48.616;12.872;2023-03-11T05:14:41;0.50;10.10
7684;DHT22;3884;48.616;12.872;2023-03-11T05:17:08;0.50;1.00
7684;DHT22;3884;48.616;12.872;2023-03-11T05:19:37;0.50;1.00
7684;DHT22;3884;48.616;12.872;2023-03-11T05:22:24;0.40;94.90
7684;DHT22;3884;48.616;12.872;2023-03-11T05:24:51;0.40;99.90
7684;DHT22;3884;48.616;12.872;2023-03-11T05:27:18;0.40;99.90
7684;DHT22;3884;48.616;12.872;2023-03-11T05:29:51;0.40;99.90
7684;DHT22;3884;48.616;12.872;2023-03-11T05:32:19;0.40;99.90
7684;DHT22;3884;48.616;12.872;2023-03-11T05:34:48;0.40;99.90
7684;DHT22;3884;48.616;12.872;2023-03-11T05:37:16;0.40;99.90
7684;DHT22;3884;48.616;12.872;2023-03-11T05:39:44;0.40;1.00
7684;DHT22;3884;48.616;12.872;2023-03-11T05:42:13;0.40;1.00
7684;DHT22;3884;48.616;12.872;2023-03-11T05:44:40;0.50;1.00
7684;DHT22;3884;48.616;12.872;2023-03-11T05:47:09;0.50;1.00
7684;DHT22;3884;48.616;12.872;2023-03-11T05:49:36;0.50;99.90
7684;DHT22;3884;48.616;12.872;2023-03-11T05:52:04;0.50;99.90
7684;DHT22;3884;48.616;12.872;2023-03-11T05:54:32;0.50;99.90
7684;DHT22;3884;48.616;12.872;2023-03-11T05:56:59;0.50;99.90
7684;DHT22;3884;48.616;12.872;2023-03-11T05:59:29;0.50;99.90
7684;DHT22;3884;48.616;12.872;2023-03-11T06:02:01;0.50;99.90
7684;DHT22;3884;48.616;12.872;2023-03-11T06:04:29;0.50;99.90
7684;DHT22;3884;48.616;12.872;2023-03-11T06:06:58;0.50;99.90
7684;DHT22;3884;48.616;12.872;2023-03-11T06:09:28;0.50;99.90
7684;DHT22;3884;48.616;12.872;2023-03-11T06:11:56;0.40;99.90
7684;DHT22;3884;48.616;12.872;2023-03-11T06:14:28;0.50;94.50
7684;DHT22;3884;48.616;12.872;2023-03-11T06:16:57;0.50;94.80
7684;DHT22;3884;48.616;12.872;2023-03-11T06:19:24;0.50;90.30
7684;DHT22;3884;48.616;12.872;2023-03-11T06:21:52;0.60;99.90
7684;DHT22;3884;48.616;12.872;2023-03-11T06:24:19;0.50;74.50
7684;DHT22;3884;48.616;12.872;2023-03-11T06:26:50;0.50;98.20
7684;DHT22;3884;48.616;12.872;2023-03-11T06:29:18;0.40;99.90
7684;DHT22;3884;48.616;12.872;2023-03-11T06:31:47;0.40;99.90
7684;DHT22;3884;48.616;12.872;2023-03-11T06:34:13;0.40;99.90
7684;DHT22;3884;48.616;12.872;2023-03-11T06:36:40;0.50;99.90
7684;DHT22;3884;48.616;12.872;2023-03-11T06:39:11;0.40;99.90
7684;DHT22;3884;48.616;12.872;2023-03-11T06:41:38;0.40;99.90
7684;DHT22;3884;48.616;12.872;2023-03-11T06:44:07;0.50;99.90
7684;DHT22;3884;48.616;12.872;2023-03-11T06:46:35;0.50;99.90
7684;DHT22;3884;48.616;12.872;2023-03-11T06:49:02;0.50;97.70
7684;DHT22;3884;48.616;12.872;2023-03-11T06:51:30;0.60;99.90
7684;DHT22;3884;48.616;12.872;2023-03-11T06:53:57;0.60;99.90
7684;DHT22;3884;48.616;12.872;2023-03-11T06:56:26;0.60;99.90
7684;DHT22;3884;48.616;12.872;2023-03-11T06:58:58;0.70;99.90
7684;DHT22;3884;48.616;12.872;2023-03-11T07:01:29;0.80;99.90
7684;DHT22;3884;48.616;12.872;2023-03-11T07:03:58;0.80;94.70
7684;DHT22;3884;48.616;12.872;2023-03-11T07:06:27;0.90;91.30
7684;DHT22;3884;48.616;12.872;2023-03-11T07:09:01;0.80;49.20
7684;DHT22;3884;48.616;12.872;2023-03-11T07:11:31;0.80;64.50
7684;DHT22;3884;48.616;12.872;2023-03-11T07:14:05;0.80;78.80
7684;DHT22;3884;48.616;12.872;2023-03-11T07:16:37;0.80;78.30
7684;DHT22;3884;48.616;12.872;2023-03-11T07:19:10;0.70;60.70
7684;DHT22;3884;48.616;12.872;2023-03-11T07:21:38;0.80;50.30
7684;DHT22;3884;48.616;12.872;2023-03-11T07:24:06;0.90;60.60
7684;DHT22;3884;48.616;12.872;2023-03-11T07:26:34;1.00;81.80
7684;DHT22;3884;48.616;12.872;2023-03-11T07:29:02;1.10;21.30
7684;DHT22;3884;48.616;12.872;2023-03-11T07:31:30;1.20;24.80
7684;DHT22;3884;48.616;12.872;2023-03-11T07:33:59;1.20;11.90
7684;DHT22;3884;48.616;12.872;2023-03-11T07:36:27;1.30;1.00
7684;DHT22;3884;48.616;12.872;2023-03-11T07:38:55;1.30;34.40
7684;DHT22;3884;48.616;12.872;2023-03-11T07:41:25;1.30;16.40
7684;DHT22;3884;48.616;12.872;2023-03-11T07:43:55;1.30;24.70
7684;DHT22;3884;48.616;12.872;2023-03-11T07:46:23;1.20;1.00
7684;DHT22;3884;48.616;12.872;2023-03-11T07:48:51;1.10;1.00
7684;DHT22;3884;48.616;12.872;2023-03-11T07:51:19;1.20;3.60
7684;DHT22;3884;48.616;12.872;2023-03-11T07:53:47;1.20;9.80
7684;DHT22;3884;48.616;12.872;2023-03-11T07:56:16;1.20;18.80
7684;DHT22;3884;48.616;12.872;2023-03-11T07:58:43;1.40;1.00
7684;DHT22;3884;48.616;12.872;2023-03-11T08:01:13;1.40;1.00
7684;DHT22;3884;48.616;12.872;2023-03-11T08:03:43;1.50;1.00
7684;DHT22;3884;48.616;12.872;2023-03-11T08:06:11;1.60;1.00
7684;DHT22;3884;48.616;12.872;2023-03-11T08:08:38;1.60;1.60
7684;DHT22;3884;48.616;12.872;2023-03-11T08:11:05;1.60;1.00
7684;DHT22;3884;48.616;12.872;2023-03-11T08:13:33;1.60;1.00
7684;DHT22;3884;48.616;12.872;2023-03-11T08:16:02;1.60;1.00
7684;DHT22;3884;48.616;12.872;2023-03-11T08:18:30;1.70;1.00
7684;DHT22;3884;48.616;12.872;2023-03-11T08:20:58;1.80;1.00
7684;DHT22;3884;48.616;12.872;2023-03-11T08:23:24;1.90;1.00
7684;DHT22;3884;48.616;12.872;2023-03-11T08:25:51;2.20;1.00
7684;DHT22;3884;48.616;12.872;2023-03-11T08:28:18;2.30;1.00
7684;DHT22;3884;48.616;12.872;2023-03-11T08:30:45;2.60;1.00
7684;DHT22;3884;48.616;12.872;2023-03-11T08:33:12;2.60;1.00
7684;DHT22;3884;48.616;12.872;2023-03-11T08:35:40;2.60;1.00
7684;DHT22;3884;48.616;12.872;2023-03-11T08:38:07;2.80;1.00
7684;DHT22;3884;48.616;12.872;2023-03-11T08:40:34;2.60;1.00
7684;DHT22;3884;48.616;12.872;2023-03-11T08:43:01;2.50;1.00
7684;DHT22;3884;48.616;12.872;2023-03-11T08:45:28;2.60;1.00
7684;DHT22;3884;48.616;12.872;2023-03-11T08:47:55;3.00;1.00
7684;DHT22;3884;48.616;12.872;2023-03-11T08:50:22;3.00;1.00
7684;DHT22;3884;48.616;12.872;2023-03-11T08:52:50;2.90;1.00
7684;DHT22;3884;48.616;12.872;2023-03-11T08:55:17;2.90;1.00
7684;DHT22;3884;48.616;12.872;2023-03-11T08:57:49;3.00;1.00
7684;DHT22;3884;48.616;12.872;2023-03-11T09:00:17;2.80;1.00
7684;DHT22;3884;48.616;12.872;2023-03-11T09:02:44;2.80;1.00
7684;DHT22;3884;48.616;12.872;2023-03-11T09:05:12;2.80;1.00
7684;DHT22;3884;48.616;12.872;2023-03-11T09:07:39;2.90;1.00
7684;DHT22;3884;48.616;12.872;2023-03-11T09:10:10;3.10;1.00
7684;DHT22;3884;48.616;12.872;2023-03-11T09:12:38;3.40;1.00
7684;DHT22;3884;48.616;12.872;2023-03-11T09:15:06;3.30;1.00
7684;DHT22;3884;48.616;12.872;2023-03-11T09:17:34;3.10;1.00
7684;DHT22;3884;48.616;12.872;2023-03-11T09:20:01;3.10;1.00
7684;DHT22;3884;48.616;12.872;2023-03-11T09:22:29;3.40;1.00
7684;DHT22;3884;48.616;12.872;2023-03-11T09:24:56;3.40;1.00
7684;DHT22;3884;48.616;12.872;2023-03-11T09:27:24;3.20;1.00
7684;DHT22;3884;48.616;12.872;2023-03-11T09:29:51;3.00;1.00
7684;DHT22;3884;48.616;12.872;2023-03-11T09:32:18;2.80;1.00
7684;DHT22;3884;48.616;12.872;2023-03-11T09:34:45;2.70;1.00
7684;DHT22;3884;48.616;12.872;2023-03-11T09:37:12;2.80;1.00
7684;DHT22;3884;48.616;12.872;2023-03-11T09:39:38;3.00;1.00
7684;DHT22;3884;48.616;12.872;2023-03-11T09:42:14;3.00;1.00
7684;DHT22;3884;48.616;12.872;2023-03-11T09:44:53;2.90;1.00
7684;DHT22;3884;48.616;12.872;2023-03-11T09:47:35;3.00;1.00
7684;DHT22;3884;48.616;12.872;2023-03-11T09:50:27;3.00;99.90
7684;DHT22;3884;48.616;12.872;2023-03-11T09:53:05;3.00;99.90
7684;DHT22;3884;48.616;12.872;2023-03-11T09:55:42;2.90;99.90
7684;DHT22;3884;48.616;12.872;2023-03-11T09:58:14;2.90;99.90
7684;DHT22;3884;48.616;12.872;2023-03-11T10:00:44;2.90;99.90
7684;DHT22;3884;48.616;12.872;2023-03-11T10:03:25;3.20;99.90
7684;DHT22;3884;48.616;12.872;2023-03-11T10:05:57;3.50;99.90
7684;DHT22;3884;48.616;12.872;2023-03-11T10:08:29;3.50;99.90
7684;DHT22;3884;48.616;12.872;2023-03-11T10:11:03;3.60;99.90
7684;DHT22;3884;48.616;12.872;2023-03-11T10:13:38;3.60;99.90
7684;DHT22;3884;48.616;12.872;2023-03-11T10:16:14;3.60;99.90
7684;DHT22;3884;48.616;12.872;2023-03-11T10:18:50;3.80;1.00
7684;DHT22;3884;48.616;12.872;2023-03-11T10:21:30;3.70;99.90
7684;DHT22;3884;48.616;12.872;2023-03-11T10:24:11;3.60;99.90
7684;DHT22;3884;48.616;12.872;2023-03-11T10:26:41;3.60;99.90
7684;DHT22;3884;48.616;12.872;2023-03-11T10:29:15;3.50;99.90
7684;DHT22;3884;48.616;12.872;2023-03-11T10:31:47;3.50;99.90
7684;DHT22;3884;48.616;12.872;2023-03-11T10:34:19;3.40;99.90
7684;DHT22;3884;48.616;12.872;2023-03-11T10:36:54;3.50;1.00
7684;DHT22;3884;48.616;12.872;2023-03-11T10:39:23;3.40;99.90
7684;DHT22;3884;48.616;12.872;2023-03-11T10:41:54;3.20;1.00
7684;DHT22;3884;48.616;12.872;2023-03-11T10:44:24;2.90;99.90
7684;DHT22;3884;48.616;12.872;2023-03-11T10:46:53;2.50;99.90
7684;DHT22;3884;48.616;12.872;2023-03-11T10:49:19;2.40;1.00
7684;DHT22;3884;48.616;12.872;2023-03-11T10:51:48;2.30;1.00
7684;DHT22;3884;48.616;12.872;2023-03-11T10:54:27;2.20;1.00
7684;DHT22;3884;48.616;12.872;2023-03-11T10:56:57;2.20;2.20
7684;DHT22;3884;48.616;12.872;2023-03-11T10:59:27;2.00;21.50
7684;DHT22;3884;48.616;12.872;2023-03-11T11:01:58;1.90;1.00
7684;DHT22;3884;48.616;12.872;2023-03-11T11:04:33;1.90;1.00
7684;DHT22;3884;48.616;12.872;2023-03-11T11:07:19;1.90;1.00
7684;DHT22;3884;48.616;12.872;2023-03-11T11:09:47;1.90;9.50
7684;DHT22;3884;48.616;12.872;2023-03-11T11:12:15;2.00;1.00
7684;DHT22;3884;48.616;12.872;2023-03-11T11:14:44;2.00;1.00
7684;DHT22;3884;48.616;12.872;2023-03-11T11:17:21;1.90;99.90
7684;DHT22;3884;48.616;12.872;2023-03-11T11:19:50;2.00;1.00
7684;DHT22;3884;48.616;12.872;2023-03-11T11:22:19;2.00;1.00
7684;DHT22;3884;48.616;12.872;2023-03-11T11:24:48;2.00;1.00
7684;DHT22;3884;48.616;12.872;2023-03-11T11:27:19;2.10;99.90
7684;DHT22;3884;48.616;12.872;2023-03-11T11:30:01;1.90;1.00
7684;DHT22;3884;48.616;12.872;2023-03-11T11:32:30;2.00;1.00
7684;DHT22;3884;48.616;12.872;2023-03-11T11:34:58;2.00;1.00
7684;DHT22;3884;48.616;12.872;2023-03-11T11:37:27;1.90;1.00
7684;DHT22;3884;48.616;12.872;2023-03-11T11:39:59;1.90;85.30
7684;DHT22;3884;48.616;12.872;2023-03-11T11:42:35;1.80;1.00
7684;DHT22;3884;48.616;12.872;2023-03-11T11:45:09;1.80;1.00
7684;DHT22;3884;48.616;12.872;2023-03-11T11:47:43;1.70;1.00
7684;DHT22;3884;48.616;12.872;2023-03-11T11:50:15;1.70;1.00
7684;DHT22;3884;48.616;12.872;2023-03-11T11:52:46;1.80;1.00
7684;DHT22;3884;48.616;12.872;2023-03-11T11:55:19;1.90;1.00
7684;DHT22;3884;48.616;12.872;2023-03-11T11:57:46;1.90;1.00
7684;DHT22;3884;48.616;12.872;2023-03-11T12:00:17;1.90;99.90
7684;DHT22;3884;48.616;12.872;2023-03-11T12:02:55;2.00;1.00
7684;DHT22;3884;48.616;12.872;2023-03-11T12:05:28;2.20;1.00
7684;DHT22;3884;48.616;12.872;2023-03-11T12:08:09;2.20;1.00
7684;DHT22;3884;48.616;12.872;2023-03-11T12:10:43;2.30;1.00
7684;DHT22;3884;48.616;12.872;2023-03-11T12:16:18;2.30;99.90
7684;DHT22;3884;48.616;12.872;2023-03-11T12:18:50;2.30;99.90
7684;DHT22;3884;48.616;12.872;2023-03-11T12:21:28;2.40;99.90
7684;DHT22;3884;48.616;12.872;2023-03-11T12:24:12;2.30;1.00
7684;DHT22;3884;48.616;12.872;2023-03-11T12:26:44;2.30;99.90
7684;DHT22;3884;48.616;12.872;2023-03-11T12:29:22;2.40;99.90
7684;DHT22;3884;48.616;12.872;2023-03-11T12:31:50;2.30;99.90
7684;DHT22;3884;48.616;12.872;2023-03-11T12:34:21;2.30;99.90
7684;DHT22;3884;48.616;12.872;2023-03-11T12:36:50;2.30;99.90
7684;DHT22;3884;48.616;12.872;2023-03-11T12:39:22;2.20;99.90
7684;DHT22;3884;48.616;12.872;2023-03-11T12:44:50;2.50;1.00
7684;DHT22;3884;48.616;12.872;2023-03-11T12:47:20;2.50;99.90
7684;DHT22;3884;48.616;12.872;2023-03-11T12:49:51;2.40;99.90
7684;DHT22;3884;48.616;12.872;2023-03-11T12:52:21;2.30;1.00
7684;DHT22;3884;48.616;12.872;2023-03-11T12:55:22;2.30;99.90
7684;DHT22;3884;48.616;12.872;2023-03-11T12:57:52;2.50;1.00
7684;DHT22;3884;48.616;12.872;2023-03-11T13:00:46;2.70;99.90
7684;DHT22;3884;48.616;12.872;2023-03-11T13:03:41;2.90;1.00
7684;DHT22;3884;48.616;12.872;2023-03-11T13:06:43;3.10;1.00
7684;DHT22;3884;48.616;12.872;2023-03-11T13:09:15;3.10;1.00
7684;DHT22;3884;48.616;12.872;2023-03-11T13:11:44;3.10;99.90
7684;DHT22;3884;48.616;12.872;2023-03-11T13:14:32;3.20;6.70
7684;DHT22;3884;48.616;12.872;2023-03-11T13:17:24;3.10;93.30
7684;DHT22;3884;48.616;12.872;2023-03-11T13:19:53;3.00;1.00
7684;DHT22;3884;48.616;12.872;2023-03-11T13:22:42;2.90;1.00
7684;DHT22;3884;48.616;12.872;2023-03-11T13:25:37;2.90;1.00
7684;DHT22;3884;48.616;12.872;2023-03-11T13:28:23;2.90;1.00
7684;DHT22;3884;48.616;12.872;2023-03-11T13:30:55;3.00;1.00
7684;DHT22;3884;48.616;12.872;2023-03-11T13:33:36;3.00;1.00
7684;DHT22;3884;48.616;12.872;2023-03-11T13:36:31;2.90;1.00
7684;DHT22;3884;48.616;12.872;2023-03-11T13:39:25;3.10;1.00
7684;DHT22;3884;48.616;12.872;2023-03-11T13:41:54;3.10;1.00
7684;DHT22;3884;48.616;12.872;2023-03-11T13:44:26;3.30;1.00
7684;DHT22;3884;48.616;12.872;2023-03-11T13:46:58;3.30;1.00
7684;DHT22;3884;48.616;12.872;2023-03-11T13:49:32;3.20;1.00
7684;DHT22;3884;48.616;12.872;2023-03-11T13:52:02;3.30;1.00
7684;DHT22;3884;48.616;12.872;2023-03-11T13:54:38;3.30;1.00
7684;DHT22;3884;48.616;12.872;2023-03-11T13:57:20;3.30;1.00
7684;DHT22;3884;48.616;12.872;2023-03-11T13:59:51;3.30;1.00
7684;DHT22;3884;48.616;12.872;2023-03-11T14:02:20;3.20;1.00
7684;DHT22;3884;48.616;12.872;2023-03-11T14:04:50;3.10;1.00
7684;DHT22;3884;48.616;12.872;2023-03-11T14:07:24;3.00;1.00
7684;DHT22;3884;48.616;12.872;2023-03-11T14:10:20;2.90;1.00
7684;DHT22;3884;48.616;12.872;2023-03-11T14:12:47;3.10;1.00
7684;DHT22;3884;48.616;12.872;2023-03-11T14:15:18;3.20;1.00
7684;DHT22;3884;48.616;12.872;2023-03-11T14:17:45;3.30;1.00
7684;DHT22;3884;48.616;12.872;2023-03-11T14:20:14;3.40;1.00
7684;DHT22;3884;48.616;12.872;2023-03-11T14:22:46;3.50;1.00
7684;DHT22;3884;48.616;12.872;2023-03-11T14:25:18;3.60;1.00
7684;DHT22;3884;48.616;12.872;2023-03-11T14:27:52;3.60;1.00
7684;DHT22;3884;48.616;12.872;2023-03-11T14:30:22;3.60;1.00
7684;DHT22;3884;48.616;12.872;2023-03-11T14:33:00;3.60;1.00
7684;DHT22;3884;48.616;12.872;2023-03-11T14:35:28;3.50;1.00
7684;DHT22;3884;48.616;12.872;2023-03-11T14:37:55;3.50;1.00
7684;DHT22;3884;48.616;12.872;2023-03-11T14:40:27;3.60;1.00
7684;DHT22;3884;48.616;12.872;2023-03-11T14:42:57;3.60;1.00
7684;DHT22;3884;48.616;12.872;2023-03-11T14:45:28;3.60;1.00
7684;DHT22;3884;48.616;12.872;2023-03-11T14:47:58;3.50;1.00
7684;DHT22;3884;48.616;12.872;2023-03-11T14:50:29;3.60;1.00
7684;DHT22;3884;48.616;12.872;2023-03-11T14:52:59;3.50;1.00
7684;DHT22;3884;48.616;12.872;2023-03-11T14:55:31;3.40;1.00
7684;DHT22;3884;48.616;12.872;2023-03-11T14:58:01;3.30;1.00
7684;DHT22;3884;48.616;12.872;2023-03-11T15:00:33;3.10;1.00
7684;DHT22;3884;48.616;12.872;2023-03-11T15:03:05;3.10;1.00
7684;DHT22;3884;48.616;12.872;2023-03-11T15:05:41;3.10;1.00
7684;DHT22;3884;48.616;12.872;2023-03-11T15:08:09;3.00;1.00
7684;DHT22;3884;48.616;12.872;2023-03-11T15:10:38;2.90;1.00
7684;DHT22;3884;48.616;12.872;2023-03-11T15:13:12;2.90;1.00
7684;DHT22;3884;48.616;12.872;2023-03-11T15:15:40;2.80;1.00
7684;DHT22;3884;48.616;12.872;2023-03-11T15:18:20;2.90;1.00
7684;DHT22;3884;48.616;12.872;2023-03-11T15:21:00;2.90;1.00
7684;DHT22;3884;48.616;12.872;2023-03-11T15:23:28;3.00;1.00
7684;DHT22;3884;48.616;12.872;2023-03-11T15:25:57;2.90;1.00
7684;DHT22;3884;48.616;12.872;2023-03-11T15:28:27;2.90;1.00
7684;DHT22;3884;48.616;12.872;2023-03-11T15:31:16;2.80;1.00
7684;DHT22;3884;48.616;12.872;2023-03-11T15:33:43;2.90;1.00
7684;DHT22;3884;48.616;12.872;2023-03-11T15:36:28;2.80;1.00
7684;DHT22;3884;48.616;12.872;2023-03-11T15:39:13;2.80;1.00
7684;DHT22;3884;48.616;12.872;2023-03-11T15:41:42;2.80;1.00
7684;DHT22;3884;48.616;12.872;2023-03-11T15:44:24;2.80;1.00
7684;DHT22;3884;48.616;12.872;2023-03-11T15:46:51;2.70;99.90
7684;DHT22;3884;48.616;12.872;2023-03-11T15:49:18;2.60;1.00
7684;DHT22;3884;48.616;12.872;2023-03-11T15:51:45;2.60;1.00
7684;DHT22;3884;48.616;12.872;2023-03-11T15:54:12;2.70;1.00
7684;DHT22;3884;48.616;12.872;2023-03-11T15:56:41;2.80;1.00
7684;DHT22;3884;48.616;12.872;2023-03-11T15:59:12;2.80;1.00
7684;DHT22;3884;48.616;12.872;2023-03-11T16:01:39;2.70;1.00
7684;DHT22;3884;48.616;12.872;2023-03-11T16:04:11;2.70;1.00
7684;DHT22;3884;48.616;12.872;2023-03-11T16:06:38;2.60;1.00
7684;DHT22;3884;48.616;12.872;2023-03-11T16:09:05;2.60;99.90
7684;DHT22;3884;48.616;12.872;2023-03-11T16:11:33;2.70;1.00
7684;DHT22;3884;48.616;12.872;2023-03-11T16:14:02;2.70;1.00
7684;DHT22;3884;48.616;12.872;2023-03-11T16:16:29;2.80;1.00
7684;DHT22;3884;48.616;12.872;2023-03-11T16:18:56;2.80;1.00
7684;DHT22;3884;48.616;12.872;2023-03-11T16:21:28;2.80;1.00
7684;DHT22;3884;48.616;12.872;2023-03-11T16:23:56;2.80;1.00
7684;DHT22;3884;48.616;12.872;2023-03-11T16:26:23;2.70;99.90
7684;DHT22;3884;48.616;12.872;2023-03-11T16:28:50;2.80;1.00
7684;DHT22;3884;48.616;12.872;2023-03-11T16:31:18;2.80;1.00
7684;DHT22;3884;48.616;12.872;2023-03-11T16:33:45;2.80;99.90
7684;DHT22;3884;48.616;12.872;2023-03-11T16:36:12;2.80;1.00
7684;DHT22;3884;48.616;12.872;2023-03-11T16:38:43;2.60;99.90
7684;DHT22;3884;48.616;12.872;2023-03-11T16:41:10;2.60;99.90